Alor Star, Malaysia

11:12 PM MYT on October 21, 2014 (GMT +0800)
Sultan Abdul Halim | Change Station
CLOSE
Current Station
Airport
Location: Sultan Abdul Halim,
Elevation: 16 ft
Nearby Weather Stations

Elev 16 ft 6.19 °N, 100.40 °E | Updated 12 minutes ago

Mostly Cloudy
Mostly Cloudy
77 °F
Feels Like 77 °F
N
1
Wind Variable Wind from East

Today
High -- | Low -- °F
--% Chance of Precip.
Yesterday
High -- | Low -- °F
Precip. -- in
7:04 AM 7:01 PM
Waning Crescent, 5% visible
Pressure 29.92 in
Visibility 6.2 miles
Clouds Few 3000 ft
Scattered Clouds 14000 ft
Mostly Cloudy 28000 ft
Dew Point 75 °F
Humidity 94%
Rainfall 0.00 in
Snow Depth Not available.
UV 0 out of 12
Pollen Not available.
Air Quality Not available.
Flu Activity Not available.
METAR WMKA 211500Z 10001KT 9999 FEW030 SCT140 BKN280 25/24 Q1013

More Conditions Fewer Conditions

Pressure 29.92 in
Visibility 6.2 miles
Clouds Few 3000 ft
Scattered Clouds 14000 ft
Mostly Cloudy 28000 ft
Dew Point 75 °F
Humidity 94%
Rainfall 0.00 in
Snow Depth Not available.
UV 0 out of 12
Pollen Not available.
Air Quality Not available.
Flu Activity Not available.
METAR WMKA 211500Z 10001KT 9999 FEW030 SCT140 BKN280 25/24 Q1013

More Conditions Fewer Conditions

10-Day Weather Forecast

Almanac

Astronomy

Oct. 21, 2014 Rise Set
Actual Time 7:04 AM MYT 7:01 PM MYT
Civil Twilight 6:43 AM MYT 7:22 PM MYT
Nautical Twilight 6:18 AM MYT 7:47 PM MYT
Astronomical Twilight 5:54 AM MYT 8:11 PM MYT
Moon 4:51 AM MYT 5:12 PM MYT
Length of Visible Light 12h 39m
Length of Day
11h 57m
Tomorrow will be 0m 18s shorter.
Waning Crescent, 5% of the Moon is Illuminated
Today
Waning Crescent
Oct 23
New
Oct 30
First Quarter
Nov 6
Full
Nov 14
Last Quarter

Today's Extremes

Country Highs Country Lows

Community

WunderPhotos

Upload Photos

1,763,684 photos uploaded!

WunderBlogs® & News

By Dr. Jeff Masters
Director of Meteorology, Weather Underground
By Kari Strenfel
Meteorologist, Weather Underground
By Christopher C. Burt
Weather Historian, Weather Underground
October 21, 2014
October 21, 2014
October 21, 2014

Nearby

Snow Depth

Not available.

Earthquake Activity

City Distance Mag. Time & Date
No recent earthquake activity has been reported nearby.
Minimum magnitude displayed is 2.5.

Coastal Water Temperatures

Place Temperature
No Stations Reporting

Nearby Weather Stations